ガーンジー島 の空港の天気 - METARとTAF

ガーンジー空港 ( EGJB / GCI ) - ガーンジー島 ガーンジー島
飛行場実況気象(Metar)
観測時間09/25 20:50 BST (09/25 19:50 UTC)
風向・風速西 5m/s
視程10km以上
天気現象
少しの雲 雲底高度 730m
気温13℃
湿度72%
気圧1018hPa
METAREGJB 251950Z 28010KT 9999 FEW024 13/08 Q1018
過去の天気等 Google飛行場航空写真 Wunderground天気予報

過去48時間のMETAR

飛行場予報(TAF)
発表時間: 9/25 18:00 BST (9/25 17:00 UTC)
予報対象時間: 25日19時 BST ~ 26日4時 BST
風向・風速北 5m/s
視程10km以上
少しの雲 雲底高度 820m
25日19時 BST ~ 25日20時 BST に徐々に
風向・風速西北西 5m/s
25日22時 BST ~ 26日4時 BST に 確率 30% で一時的に
風向・風速西北西 8m/s 瞬間風速 13m/s
視程7000m
天気現象しゅう雨
全天の8割程度の雲 雲底高度 760m
TAF EGJB 251700Z 2518/2603 36010KT 9999 FEW027
BECMG 2518/2519 30010KT
PROB30 TEMPO 2521/2603 29015G25KT 7000 SHRA BKN025